sensor_id;sensor_type;location;lat;lon;timestamp;P1;durP1;ratioP1;P2;durP2;ratioP2
55435;SDS011;41307;53.142;6.430;2023-06-26T00:00:40;4.15;;;2.97;;
55435;SDS011;41307;53.142;6.430;2023-06-26T00:03:06;6.88;;;3.10;;
55435;SDS011;41307;53.142;6.430;2023-06-26T00:05:32;4.35;;;2.92;;
55435;SDS011;41307;53.142;6.430;2023-06-26T00:07:58;5.43;;;3.40;;
55435;SDS011;41307;53.142;6.430;2023-06-26T00:10:26;5.50;;;3.10;;
55435;SDS011;41307;53.142;6.430;2023-06-26T00:12:52;5.80;;;3.33;;
55435;SDS011;41307;53.142;6.430;2023-06-26T00:15:18;3.92;;;2.80;;
55435;SDS011;41307;53.142;6.430;2023-06-26T00:17:44;4.90;;;3.47;;
55435;SDS011;41307;53.142;6.430;2023-06-26T00:20:10;4.28;;;3.20;;
55435;SDS011;41307;53.142;6.430;2023-06-26T00:22:36;4.75;;;3.08;;
55435;SDS011;41307;53.142;6.430;2023-06-26T00:25:05;4.22;;;3.05;;
55435;SDS011;41307;53.142;6.430;2023-06-26T00:27:31;4.97;;;3.25;;
55435;SDS011;41307;53.142;6.430;2023-06-26T00:29:57;5.57;;;3.63;;
55435;SDS011;41307;53.142;6.430;2023-06-26T00:32:23;4.70;;;3.15;;
55435;SDS011;41307;53.142;6.430;2023-06-26T00:34:48;4.20;;;3.05;;
55435;SDS011;41307;53.142;6.430;2023-06-26T00:37:14;6.07;;;3.40;;
55435;SDS011;41307;53.142;6.430;2023-06-26T00:39:40;4.40;;;2.80;;
55435;SDS011;41307;53.142;6.430;2023-06-26T00:42:06;6.47;;;3.53;;
55435;SDS011;41307;53.142;6.430;2023-06-26T00:44:32;4.45;;;3.10;;
55435;SDS011;41307;53.142;6.430;2023-06-26T00:46:57;5.05;;;3.60;;
55435;SDS011;41307;53.142;6.430;2023-06-26T00:49:24;5.68;;;3.17;;
55435;SDS011;41307;53.142;6.430;2023-06-26T00:51:51;5.55;;;3.53;;
55435;SDS011;41307;53.142;6.430;2023-06-26T00:54:17;5.90;;;3.40;;
55435;SDS011;41307;53.142;6.430;2023-06-26T00:56:47;4.43;;;3.30;;
55435;SDS011;41307;53.142;6.430;2023-06-26T00:59:13;5.57;;;3.17;;
55435;SDS011;41307;53.142;6.430;2023-06-26T01:01:39;3.72;;;2.50;;
55435;SDS011;41307;53.142;6.430;2023-06-26T01:04:05;5.97;;;3.00;;
55435;SDS011;41307;53.142;6.430;2023-06-26T01:06:31;4.90;;;3.30;;
55435;SDS011;41307;53.142;6.430;2023-06-26T01:09:00;4.45;;;3.20;;
55435;SDS011;41307;53.142;6.430;2023-06-26T01:11:27;5.15;;;3.28;;
55435;SDS011;41307;53.142;6.430;2023-06-26T01:13:54;5.32;;;3.40;;
55435;SDS011;41307;53.142;6.430;2023-06-26T01:16:21;5.57;;;3.33;;
55435;SDS011;41307;53.142;6.430;2023-06-26T01:18:49;5.13;;;3.42;;
55435;SDS011;41307;53.142;6.430;2023-06-26T01:21:15;5.78;;;3.58;;
55435;SDS011;41307;53.142;6.430;2023-06-26T01:23:47;3.85;;;2.92;;
55435;SDS011;41307;53.142;6.430;2023-06-26T01:26:25;5.40;;;3.25;;
55435;SDS011;41307;53.142;6.430;2023-06-26T01:28:54;5.88;;;3.78;;
55435;SDS011;41307;53.142;6.430;2023-06-26T01:31:21;4.70;;;3.58;;
55435;SDS011;41307;53.142;6.430;2023-06-26T01:33:48;4.70;;;3.15;;
55435;SDS011;41307;53.142;6.430;2023-06-26T01:36:15;5.85;;;3.85;;
55435;SDS011;41307;53.142;6.430;2023-06-26T01:38:41;5.47;;;3.53;;
55435;SDS011;41307;53.142;6.430;2023-06-26T01:41:07;5.43;;;3.67;;
55435;SDS011;41307;53.142;6.430;2023-06-26T01:46:18;4.93;;;3.28;;
55435;SDS011;41307;53.142;6.430;2023-06-26T01:49:06;4.70;;;3.45;;
55435;SDS011;41307;53.142;6.430;2023-06-26T01:51:44;5.75;;;3.13;;
55435;SDS011;41307;53.142;6.430;2023-06-26T01:54:17;4.95;;;3.40;;
55435;SDS011;41307;53.142;6.430;2023-06-26T01:56:45;4.75;;;3.50;;
55435;SDS011;41307;53.142;6.430;2023-06-26T01:59:13;5.70;;;3.40;;
55435;SDS011;41307;53.142;6.430;2023-06-26T02:01:40;6.55;;;3.47;;
55435;SDS011;41307;53.142;6.430;2023-06-26T02:04:06;5.43;;;3.17;;
55435;SDS011;41307;53.142;6.430;2023-06-26T02:06:32;4.93;;;3.08;;
55435;SDS011;41307;53.142;6.430;2023-06-26T02:08:58;4.40;;;3.03;;
55435;SDS011;41307;53.142;6.430;2023-06-26T02:11:23;4.40;;;2.97;;
55435;SDS011;41307;53.142;6.430;2023-06-26T02:13:49;3.95;;;3.03;;
55435;SDS011;41307;53.142;6.430;2023-06-26T02:16:15;5.28;;;3.55;;
55435;SDS011;41307;53.142;6.430;2023-06-26T02:18:40;5.28;;;3.42;;
55435;SDS011;41307;53.142;6.430;2023-06-26T02:21:06;6.72;;;3.67;;
55435;SDS011;41307;53.142;6.430;2023-06-26T02:23:32;6.70;;;4.40;;
55435;SDS011;41307;53.142;6.430;2023-06-26T02:25:58;7.07;;;4.28;;
55435;SDS011;41307;53.142;6.430;2023-06-26T02:28:24;6.78;;;3.63;;
55435;SDS011;41307;53.142;6.430;2023-06-26T02:30:49;6.05;;;4.30;;
55435;SDS011;41307;53.142;6.430;2023-06-26T02:33:15;6.38;;;3.67;;
55435;SDS011;41307;53.142;6.430;2023-06-26T02:35:41;4.95;;;3.78;;
55435;SDS011;41307;53.142;6.430;2023-06-26T02:38:06;6.65;;;4.00;;
55435;SDS011;41307;53.142;6.430;2023-06-26T02:40:33;6.47;;;3.90;;
55435;SDS011;41307;53.142;6.430;2023-06-26T02:42:59;5.80;;;4.22;;
55435;SDS011;41307;53.142;6.430;2023-06-26T02:45:24;5.55;;;3.80;;
55435;SDS011;41307;53.142;6.430;2023-06-26T02:47:50;6.10;;;3.78;;
55435;SDS011;41307;53.142;6.430;2023-06-26T02:50:16;6.63;;;4.07;;
55435;SDS011;41307;53.142;6.430;2023-06-26T02:52:41;5.25;;;3.75;;
55435;SDS011;41307;53.142;6.430;2023-06-26T02:55:07;7.18;;;4.55;;
55435;SDS011;41307;53.142;6.430;2023-06-26T02:57:33;6.65;;;4.35;;
55435;SDS011;41307;53.142;6.430;2023-06-26T02:59:58;7.00;;;4.20;;
55435;SDS011;41307;53.142;6.430;2023-06-26T03:02:24;6.13;;;4.13;;
55435;SDS011;41307;53.142;6.430;2023-06-26T03:04:50;7.95;;;4.28;;
55435;SDS011;41307;53.142;6.430;2023-06-26T03:07:16;5.95;;;4.00;;
55435;SDS011;41307;53.142;6.430;2023-06-26T03:09:42;6.22;;;4.22;;
55435;SDS011;41307;53.142;6.430;2023-06-26T03:12:08;5.68;;;4.18;;
55435;SDS011;41307;53.142;6.430;2023-06-26T03:14:34;5.10;;;3.95;;
55435;SDS011;41307;53.142;6.430;2023-06-26T03:17:00;8.43;;;4.45;;
55435;SDS011;41307;53.142;6.430;2023-06-26T03:19:28;5.97;;;4.53;;
55435;SDS011;41307;53.142;6.430;2023-06-26T03:21:54;5.35;;;3.83;;
55435;SDS011;41307;53.142;6.430;2023-06-26T03:24:20;6.93;;;4.18;;
55435;SDS011;41307;53.142;6.430;2023-06-26T03:26:46;6.20;;;3.72;;
55435;SDS011;41307;53.142;6.430;2023-06-26T03:29:11;7.35;;;4.38;;
55435;SDS011;41307;53.142;6.430;2023-06-26T03:31:37;6.90;;;4.13;;
55435;SDS011;41307;53.142;6.430;2023-06-26T03:34:03;6.55;;;4.07;;
55435;SDS011;41307;53.142;6.430;2023-06-26T03:36:29;7.00;;;4.47;;
55435;SDS011;41307;53.142;6.430;2023-06-26T03:38:55;7.20;;;4.53;;
55435;SDS011;41307;53.142;6.430;2023-06-26T03:41:22;6.80;;;4.55;;
55435;SDS011;41307;53.142;6.430;2023-06-26T03:43:48;6.63;;;4.28;;
55435;SDS011;41307;53.142;6.430;2023-06-26T03:46:14;6.20;;;4.00;;
55435;SDS011;41307;53.142;6.430;2023-06-26T03:48:40;6.88;;;3.72;;
55435;SDS011;41307;53.142;6.430;2023-06-26T03:51:06;5.20;;;3.55;;
55435;SDS011;41307;53.142;6.430;2023-06-26T03:53:32;7.53;;;3.80;;
55435;SDS011;41307;53.142;6.430;2023-06-26T03:55:58;5.68;;;3.85;;
55435;SDS011;41307;53.142;6.430;2023-06-26T03:58:24;8.63;;;4.15;;
55435;SDS011;41307;53.142;6.430;2023-06-26T04:00:50;9.18;;;4.40;;
55435;SDS011;41307;53.142;6.430;2023-06-26T04:03:16;6.15;;;3.90;;
55435;SDS011;41307;53.142;6.430;2023-06-26T04:05:42;6.43;;;3.88;;
55435;SDS011;41307;53.142;6.430;2023-06-26T04:08:08;7.80;;;4.65;;
55435;SDS011;41307;53.142;6.430;2023-06-26T04:10:34;6.78;;;4.13;;
55435;SDS011;41307;53.142;6.430;2023-06-26T04:13:01;5.20;;;3.35;;
55435;SDS011;41307;53.142;6.430;2023-06-26T04:15:27;5.53;;;3.80;;
55435;SDS011;41307;53.142;6.430;2023-06-26T04:17:53;5.47;;;3.58;;
55435;SDS011;41307;53.142;6.430;2023-06-26T04:20:18;7.15;;;3.97;;
55435;SDS011;41307;53.142;6.430;2023-06-26T04:22:44;7.18;;;3.72;;
55435;SDS011;41307;53.142;6.430;2023-06-26T04:25:10;5.68;;;4.00;;
55435;SDS011;41307;53.142;6.430;2023-06-26T04:27:39;5.00;;;3.67;;
55435;SDS011;41307;53.142;6.430;2023-06-26T04:30:05;5.65;;;3.70;;
55435;SDS011;41307;53.142;6.430;2023-06-26T04:32:31;6.55;;;3.38;;
55435;SDS011;41307;53.142;6.430;2023-06-26T04:34:56;4.80;;;3.45;;
55435;SDS011;41307;53.142;6.430;2023-06-26T04:37:22;7.65;;;3.80;;
55435;SDS011;41307;53.142;6.430;2023-06-26T04:39:49;6.05;;;3.28;;
55435;SDS011;41307;53.142;6.430;2023-06-26T04:42:15;6.38;;;2.78;;
55435;SDS011;41307;53.142;6.430;2023-06-26T04:44:41;5.22;;;2.58;;
55435;SDS011;41307;53.142;6.430;2023-06-26T04:47:07;7.25;;;2.90;;
55435;SDS011;41307;53.142;6.430;2023-06-26T04:49:33;5.47;;;2.33;;
55435;SDS011;41307;53.142;6.430;2023-06-26T04:51:59;4.68;;;2.45;;
55435;SDS011;41307;53.142;6.430;2023-06-26T04:54:25;4.68;;;2.10;;
55435;SDS011;41307;53.142;6.430;2023-06-26T04:56:52;7.32;;;2.47;;
55435;SDS011;41307;53.142;6.430;2023-06-26T04:59:18;4.57;;;2.42;;
55435;SDS011;41307;53.142;6.430;2023-06-26T05:01:44;5.15;;;2.47;;
55435;SDS011;41307;53.142;6.430;2023-06-26T05:04:13;5.25;;;2.65;;
55435;SDS011;41307;53.142;6.430;2023-06-26T05:06:40;4.60;;;2.88;;
55435;SDS011;41307;53.142;6.430;2023-06-26T05:09:09;4.05;;;2.35;;
55435;SDS011;41307;53.142;6.430;2023-06-26T05:11:36;6.22;;;3.05;;
55435;SDS011;41307;53.142;6.430;2023-06-26T05:14:02;5.65;;;3.20;;
55435;SDS011;41307;53.142;6.430;2023-06-26T05:16:27;5.18;;;2.55;;
55435;SDS011;41307;53.142;6.430;2023-06-26T05:18:53;5.95;;;2.83;;
55435;SDS011;41307;53.142;6.430;2023-06-26T05:21:19;4.45;;;2.63;;
55435;SDS011;41307;53.142;6.430;2023-06-26T05:23:45;5.75;;;2.40;;
55435;SDS011;41307;53.142;6.430;2023-06-26T05:26:12;6.57;;;2.97;;
55435;SDS011;41307;53.142;6.430;2023-06-26T05:28:38;5.07;;;2.33;;
55435;SDS011;41307;53.142;6.430;2023-06-26T05:31:05;3.13;;;1.70;;
55435;SDS011;41307;53.142;6.430;2023-06-26T05:33:31;4.53;;;1.90;;
55435;SDS011;41307;53.142;6.430;2023-06-26T05:36:00;4.32;;;1.88;;
55435;SDS011;41307;53.142;6.430;2023-06-26T05:38:28;3.55;;;1.52;;
55435;SDS011;41307;53.142;6.430;2023-06-26T05:40:54;5.18;;;1.70;;
55435;SDS011;41307;53.142;6.430;2023-06-26T05:43:20;3.38;;;1.80;;
55435;SDS011;41307;53.142;6.430;2023-06-26T05:45:47;3.17;;;1.50;;
55435;SDS011;41307;53.142;6.430;2023-06-26T05:48:13;3.33;;;1.63;;
55435;SDS011;41307;53.142;6.430;2023-06-26T05:50:39;3.00;;;1.55;;
55435;SDS011;41307;53.142;6.430;2023-06-26T05:53:07;5.60;;;1.73;;
55435;SDS011;41307;53.142;6.430;2023-06-26T05:55:33;3.88;;;1.42;;
55435;SDS011;41307;53.142;6.430;2023-06-26T05:57:59;4.47;;;1.25;;
55435;SDS011;41307;53.142;6.430;2023-06-26T06:00:27;5.30;;;1.30;;
55435;SDS011;41307;53.142;6.430;2023-06-26T06:02:53;5.72;;;1.00;;
55435;SDS011;41307;53.142;6.430;2023-06-26T06:05:19;4.00;;;1.23;;
55435;SDS011;41307;53.142;6.430;2023-06-26T06:07:46;3.67;;;0.85;;
55435;SDS011;41307;53.142;6.430;2023-06-26T06:10:12;3.83;;;1.25;;
55435;SDS011;41307;53.142;6.430;2023-06-26T06:12:38;2.90;;;1.00;;
55435;SDS011;41307;53.142;6.430;2023-06-26T06:15:04;4.75;;;1.23;;
55435;SDS011;41307;53.142;6.430;2023-06-26T06:17:30;3.50;;;0.73;;
55435;SDS011;41307;53.142;6.430;2023-06-26T06:19:56;2.63;;;0.70;;
55435;SDS011;41307;53.142;6.430;2023-06-26T06:22:22;2.15;;;0.90;;
55435;SDS011;41307;53.142;6.430;2023-06-26T06:24:48;1.67;;;0.77;;
55435;SDS011;41307;53.142;6.430;2023-06-26T06:27:15;3.67;;;0.90;;
55435;SDS011;41307;53.142;6.430;2023-06-26T06:29:41;3.15;;;0.88;;
55435;SDS011;41307;53.142;6.430;2023-06-26T06:32:07;2.17;;;0.60;;
55435;SDS011;41307;53.142;6.430;2023-06-26T06:34:33;1.38;;;0.60;;
55435;SDS011;41307;53.142;6.430;2023-06-26T06:36:59;2.85;;;0.70;;
55435;SDS011;41307;53.142;6.430;2023-06-26T06:39:25;3.58;;;1.00;;
55435;SDS011;41307;53.142;6.430;2023-06-26T06:41:50;1.40;;;0.63;;
55435;SDS011;41307;53.142;6.430;2023-06-26T06:44:16;1.58;;;0.60;;
55435;SDS011;41307;53.142;6.430;2023-06-26T06:46:42;1.02;;;0.50;;
55435;SDS011;41307;53.142;6.430;2023-06-26T06:49:08;2.05;;;0.60;;
55435;SDS011;41307;53.142;6.430;2023-06-26T06:51:34;2.63;;;0.77;;
55435;SDS011;41307;53.142;6.430;2023-06-26T06:54:00;2.30;;;0.40;;
55435;SDS011;41307;53.142;6.430;2023-06-26T06:56:26;2.05;;;0.47;;
55435;SDS011;41307;53.142;6.430;2023-06-26T06:58:52;1.27;;;0.55;;
55435;SDS011;41307;53.142;6.430;2023-06-26T07:01:17;2.40;;;0.50;;
55435;SDS011;41307;53.142;6.430;2023-06-26T07:03:43;1.85;;;0.50;;
55435;SDS011;41307;53.142;6.430;2023-06-26T07:06:09;1.15;;;0.45;;
55435;SDS011;41307;53.142;6.430;2023-06-26T07:08:34;2.63;;;0.50;;
55435;SDS011;41307;53.142;6.430;2023-06-26T07:11:00;1.17;;;0.50;;
55435;SDS011;41307;53.142;6.430;2023-06-26T07:13:26;0.50;;;0.30;;
55435;SDS011;41307;53.142;6.430;2023-06-26T07:15:52;0.73;;;0.40;;
55435;SDS011;41307;53.142;6.430;2023-06-26T07:18:18;1.85;;;0.35;;
55435;SDS011;41307;53.142;6.430;2023-06-26T07:20:43;1.73;;;0.60;;
55435;SDS011;41307;53.142;6.430;2023-06-26T07:23:09;1.23;;;0.47;;
55435;SDS011;41307;53.142;6.430;2023-06-26T07:25:35;1.10;;;0.50;;
55435;SDS011;41307;53.142;6.430;2023-06-26T07:28:01;1.60;;;0.30;;
55435;SDS011;41307;53.142;6.430;2023-06-26T07:30:28;1.65;;;0.57;;
55435;SDS011;41307;53.142;6.430;2023-06-26T07:32:53;2.28;;;0.50;;
55435;SDS011;41307;53.142;6.430;2023-06-26T07:35:19;1.67;;;0.47;;
55435;SDS011;41307;53.142;6.430;2023-06-26T07:37:45;2.03;;;0.40;;
55435;SDS011;41307;53.142;6.430;2023-06-26T07:40:11;1.90;;;0.47;;
55435;SDS011;41307;53.142;6.430;2023-06-26T07:42:36;2.22;;;0.45;;
55435;SDS011;41307;53.142;6.430;2023-06-26T07:45:02;1.52;;;0.40;;
55435;SDS011;41307;53.142;6.430;2023-06-26T07:47:36;0.38;;;0.20;;
55435;SDS011;41307;53.142;6.430;2023-06-26T07:50:02;0.57;;;0.30;;
55435;SDS011;41307;53.142;6.430;2023-06-26T07:52:28;1.73;;;0.40;;
55435;SDS011;41307;53.142;6.430;2023-06-26T07:54:55;2.13;;;0.40;;
55435;SDS011;41307;53.142;6.430;2023-06-26T07:57:21;1.58;;;0.40;;
55435;SDS011;41307;53.142;6.430;2023-06-26T07:59:47;0.98;;;0.40;;
55435;SDS011;41307;53.142;6.430;2023-06-26T08:02:13;1.38;;;0.30;;
55435;SDS011;41307;53.142;6.430;2023-06-26T08:04:38;1.17;;;0.45;;
55435;SDS011;41307;53.142;6.430;2023-06-26T08:07:04;1.38;;;0.30;;
55435;SDS011;41307;53.142;6.430;2023-06-26T08:09:30;2.00;;;0.30;;
55435;SDS011;41307;53.142;6.430;2023-06-26T08:11:57;1.35;;;0.57;;
55435;SDS011;41307;53.142;6.430;2023-06-26T08:14:22;0.77;;;0.70;;
55435;SDS011;41307;53.142;6.430;2023-06-26T08:16:49;1.27;;;0.40;;
55435;SDS011;41307;53.142;6.430;2023-06-26T08:19:15;1.52;;;0.40;;
55435;SDS011;41307;53.142;6.430;2023-06-26T08:21:44;3.53;;;0.50;;
55435;SDS011;41307;53.142;6.430;2023-06-26T08:24:10;1.20;;;0.40;;
55435;SDS011;41307;53.142;6.430;2023-06-26T08:26:38;0.80;;;0.20;;
55435;SDS011;41307;53.142;6.430;2023-06-26T08:29:04;1.95;;;0.45;;
55435;SDS011;41307;53.142;6.430;2023-06-26T08:31:36;2.13;;;0.50;;
55435;SDS011;41307;53.142;6.430;2023-06-26T08:34:02;0.82;;;0.30;;
55435;SDS011;41307;53.142;6.430;2023-06-26T08:36:29;1.08;;;0.30;;
55435;SDS011;41307;53.142;6.430;2023-06-26T08:38:55;1.50;;;0.40;;
55435;SDS011;41307;53.142;6.430;2023-06-26T08:41:21;0.70;;;0.30;;
55435;SDS011;41307;53.142;6.430;2023-06-26T08:43:47;0.65;;;0.47;;
55435;SDS011;41307;53.142;6.430;2023-06-26T08:46:15;0.70;;;0.40;;
55435;SDS011;41307;53.142;6.430;2023-06-26T08:48:41;0.50;;;0.30;;
55435;SDS011;41307;53.142;6.430;2023-06-26T08:51:14;1.45;;;0.55;;
55435;SDS011;41307;53.142;6.430;2023-06-26T08:53:46;0.73;;;0.40;;
55435;SDS011;41307;53.142;6.430;2023-06-26T08:56:17;0.77;;;0.35;;
55435;SDS011;41307;53.142;6.430;2023-06-26T08:58:46;1.77;;;0.60;;
55435;SDS011;41307;53.142;6.430;2023-06-26T09:01:12;0.82;;;0.50;;
55435;SDS011;41307;53.142;6.430;2023-06-26T09:03:38;2.40;;;0.40;;
55435;SDS011;41307;53.142;6.430;2023-06-26T09:06:04;1.52;;;0.40;;
55435;SDS011;41307;53.142;6.430;2023-06-26T09:08:29;0.63;;;0.32;;
55435;SDS011;41307;53.142;6.430;2023-06-26T09:10:55;2.00;;;0.30;;
55435;SDS011;41307;53.142;6.430;2023-06-26T09:13:21;0.57;;;0.35;;
55435;SDS011;41307;53.142;6.430;2023-06-26T09:15:47;0.47;;;0.30;;
55435;SDS011;41307;53.142;6.430;2023-06-26T09:18:13;0.95;;;0.40;;
55435;SDS011;41307;53.142;6.430;2023-06-26T09:20:41;0.63;;;0.30;;
55435;SDS011;41307;53.142;6.430;2023-06-26T09:23:07;1.85;;;0.40;;
55435;SDS011;41307;53.142;6.430;2023-06-26T09:25:37;0.80;;;0.32;;
55435;SDS011;41307;53.142;6.430;2023-06-26T09:28:04;0.30;;;0.20;;
55435;SDS011;41307;53.142;6.430;2023-06-26T09:30:33;2.17;;;0.40;;
55435;SDS011;41307;53.142;6.430;2023-06-26T09:33:15;1.08;;;0.52;;
55435;SDS011;41307;53.142;6.430;2023-06-26T09:35:43;1.70;;;0.70;;
55435;SDS011;41307;53.142;6.430;2023-06-26T09:38:09;1.15;;;0.50;;
55435;SDS011;41307;53.142;6.430;2023-06-26T09:40:36;0.95;;;0.40;;
55435;SDS011;41307;53.142;6.430;2023-06-26T09:43:06;1.55;;;0.85;;
55435;SDS011;41307;53.142;6.430;2023-06-26T09:45:34;0.93;;;0.50;;
55435;SDS011;41307;53.142;6.430;2023-06-26T09:48:03;1.63;;;0.60;;
55435;SDS011;41307;53.142;6.430;2023-06-26T09:50:30;1.05;;;0.55;;
55435;SDS011;41307;53.142;6.430;2023-06-26T09:52:59;1.38;;;0.70;;
55435;SDS011;41307;53.142;6.430;2023-06-26T09:55:38;0.93;;;0.35;;
55435;SDS011;41307;53.142;6.430;2023-06-26T09:58:10;0.50;;;0.35;;
55435;SDS011;41307;53.142;6.430;2023-06-26T10:00:43;0.80;;;0.40;;
55435;SDS011;41307;53.142;6.430;2023-06-26T10:03:12;2.10;;;0.60;;
55435;SDS011;41307;53.142;6.430;2023-06-26T10:05:38;1.63;;;0.75;;
55435;SDS011;41307;53.142;6.430;2023-06-26T10:08:05;1.48;;;0.75;;
55435;SDS011;41307;53.142;6.430;2023-06-26T10:10:32;1.42;;;0.60;;
55435;SDS011;41307;53.142;6.430;2023-06-26T10:13:01;1.08;;;0.47;;
55435;SDS011;41307;53.142;6.430;2023-06-26T10:15:33;1.35;;;0.90;;
55435;SDS011;41307;53.142;6.430;2023-06-26T10:18:00;1.55;;;0.60;;
55435;SDS011;41307;53.142;6.430;2023-06-26T10:20:26;1.10;;;0.40;;
55435;SDS011;41307;53.142;6.430;2023-06-26T10:22:52;1.00;;;0.60;;
55435;SDS011;41307;53.142;6.430;2023-06-26T10:25:20;0.90;;;0.50;;
55435;SDS011;41307;53.142;6.430;2023-06-26T10:27:50;1.48;;;0.80;;
55435;SDS011;41307;53.142;6.430;2023-06-26T10:30:20;0.95;;;0.40;;
55435;SDS011;41307;53.142;6.430;2023-06-26T10:32:52;1.88;;;0.50;;
55435;SDS011;41307;53.142;6.430;2023-06-26T10:35:18;1.00;;;0.50;;
55435;SDS011;41307;53.142;6.430;2023-06-26T10:37:48;3.05;;;0.60;;
55435;SDS011;41307;53.142;6.430;2023-06-26T10:40:15;0.63;;;0.40;;
55435;SDS011;41307;53.142;6.430;2023-06-26T10:42:47;0.60;;;0.50;;
55435;SDS011;41307;53.142;6.430;2023-06-26T10:45:16;1.00;;;0.45;;
55435;SDS011;41307;53.142;6.430;2023-06-26T10:47:46;1.13;;;0.40;;
55435;SDS011;41307;53.142;6.430;2023-06-26T10:52:45;1.52;;;0.40;;
55435;SDS011;41307;53.142;6.430;2023-06-26T10:55:11;0.85;;;0.30;;
55435;SDS011;41307;53.142;6.430;2023-06-26T10:57:39;1.33;;;0.43;;
55435;SDS011;41307;53.142;6.430;2023-06-26T11:00:09;0.75;;;0.32;;
55435;SDS011;41307;53.142;6.430;2023-06-26T11:02:48;1.30;;;0.68;;
55435;SDS011;41307;53.142;6.430;2023-06-26T11:05:28;1.42;;;0.40;;
55435;SDS011;41307;53.142;6.430;2023-06-26T11:08:07;1.13;;;0.40;;
55435;SDS011;41307;53.142;6.430;2023-06-26T11:10:47;1.88;;;0.47;;
55435;SDS011;41307;53.142;6.430;2023-06-26T11:13:18;1.08;;;0.40;;
55435;SDS011;41307;53.142;6.430;2023-06-26T11:15:45;2.20;;;0.30;;
55435;SDS011;41307;53.142;6.430;2023-06-26T11:18:12;0.52;;;0.30;;
55435;SDS011;41307;53.142;6.430;2023-06-26T11:20:39;1.20;;;0.50;;
55435;SDS011;41307;53.142;6.430;2023-06-26T11:23:05;2.00;;;0.35;;
55435;SDS011;41307;53.142;6.430;2023-06-26T11:25:37;1.60;;;0.25;;
55435;SDS011;41307;53.142;6.430;2023-06-26T11:28:03;2.30;;;0.38;;
55435;SDS011;41307;53.142;6.430;2023-06-26T11:30:31;1.45;;;0.25;;
55435;SDS011;41307;53.142;6.430;2023-06-26T11:33:03;1.40;;;0.40;;
55435;SDS011;41307;53.142;6.430;2023-06-26T11:35:34;0.65;;;0.30;;
55435;SDS011;41307;53.142;6.430;2023-06-26T11:38:00;0.30;;;0.20;;
55435;SDS011;41307;53.142;6.430;2023-06-26T11:40:29;1.15;;;0.30;;
55435;SDS011;41307;53.142;6.430;2023-06-26T11:42:58;0.70;;;0.30;;
55435;SDS011;41307;53.142;6.430;2023-06-26T11:45:27;1.05;;;0.30;;
55435;SDS011;41307;53.142;6.430;2023-06-26T11:47:55;3.03;;;0.30;;
55435;SDS011;41307;53.142;6.430;2023-06-26T11:50:24;2.63;;;0.20;;
55435;SDS011;41307;53.142;6.430;2023-06-26T11:52:54;0.25;;;0.10;;
55435;SDS011;41307;53.142;6.430;2023-06-26T11:55:21;0.75;;;0.13;;
55435;SDS011;41307;53.142;6.430;2023-06-26T11:57:48;0.82;;;0.35;;
55435;SDS011;41307;53.142;6.430;2023-06-26T12:00:23;0.65;;;0.22;;
55435;SDS011;41307;53.142;6.430;2023-06-26T12:02:49;1.27;;;0.40;;
55435;SDS011;41307;53.142;6.430;2023-06-26T12:05:16;1.27;;;0.40;;
55435;SDS011;41307;53.142;6.430;2023-06-26T12:07:43;3.08;;;0.45;;
55435;SDS011;41307;53.142;6.430;2023-06-26T12:10:11;1.08;;;0.25;;
55435;SDS011;41307;53.142;6.430;2023-06-26T12:12:38;0.77;;;0.30;;
55435;SDS011;41307;53.142;6.430;2023-06-26T12:15:06;0.57;;;0.30;;
55435;SDS011;41307;53.142;6.430;2023-06-26T12:17:32;0.47;;;0.20;;
55435;SDS011;41307;53.142;6.430;2023-06-26T12:19:58;2.78;;;0.40;;
55435;SDS011;41307;53.142;6.430;2023-06-26T12:22:24;1.30;;;0.40;;
55435;SDS011;41307;53.142;6.430;2023-06-26T12:24:59;0.85;;;0.30;;
55435;SDS011;41307;53.142;6.430;2023-06-26T12:27:25;0.60;;;0.30;;
55435;SDS011;41307;53.142;6.430;2023-06-26T12:29:51;0.73;;;0.20;;
55435;SDS011;41307;53.142;6.430;2023-06-26T12:32:18;1.05;;;0.30;;
55435;SDS011;41307;53.142;6.430;2023-06-26T12:34:47;0.50;;;0.30;;
55435;SDS011;41307;53.142;6.430;2023-06-26T12:37:15;1.27;;;0.40;;
55435;SDS011;41307;53.142;6.430;2023-06-26T12:39:48;2.50;;;0.30;;
55435;SDS011;41307;53.142;6.430;2023-06-26T12:42:27;0.77;;;0.20;;
55435;SDS011;41307;53.142;6.430;2023-06-26T12:44:54;1.27;;;0.40;;
55435;SDS011;41307;53.142;6.430;2023-06-26T12:47:28;0.50;;;0.20;;
55435;SDS011;41307;53.142;6.430;2023-06-26T12:49:55;0.80;;;0.28;;
55435;SDS011;41307;53.142;6.430;2023-06-26T12:52:22;1.17;;;0.35;;
55435;SDS011;41307;53.142;6.430;2023-06-26T12:54:52;0.88;;;0.40;;
55435;SDS011;41307;53.142;6.430;2023-06-26T12:57:19;1.38;;;0.50;;
55435;SDS011;41307;53.142;6.430;2023-06-26T12:59:45;1.45;;;0.30;;
55435;SDS011;41307;53.142;6.430;2023-06-26T13:02:11;2.45;;;0.30;;
55435;SDS011;41307;53.142;6.430;2023-06-26T13:04:37;1.10;;;0.25;;
55435;SDS011;41307;53.142;6.430;2023-06-26T13:07:05;0.90;;;0.30;;
55435;SDS011;41307;53.142;6.430;2023-06-26T13:09:32;0.40;;;0.20;;
55435;SDS011;41307;53.142;6.430;2023-06-26T13:11:59;2.28;;;0.60;;
55435;SDS011;41307;53.142;6.430;2023-06-26T13:14:25;1.80;;;0.47;;
55435;SDS011;41307;53.142;6.430;2023-06-26T13:16:51;1.38;;;0.40;;
55435;SDS011;41307;53.142;6.430;2023-06-26T13:19:16;1.65;;;0.38;;
55435;SDS011;41307;53.142;6.430;2023-06-26T13:21:42;2.00;;;0.30;;
55435;SDS011;41307;53.142;6.430;2023-06-26T13:24:08;1.40;;;0.40;;
55435;SDS011;41307;53.142;6.430;2023-06-26T13:26:34;2.05;;;0.38;;
55435;SDS011;41307;53.142;6.430;2023-06-26T13:29:00;0.50;;;0.20;;
55435;SDS011;41307;53.142;6.430;2023-06-26T13:31:26;0.45;;;0.25;;
55435;SDS011;41307;53.142;6.430;2023-06-26T13:33:52;1.33;;;0.30;;
55435;SDS011;41307;53.142;6.430;2023-06-26T13:36:18;1.25;;;0.30;;
55435;SDS011;41307;53.142;6.430;2023-06-26T13:38:44;1.17;;;0.40;;
55435;SDS011;41307;53.142;6.430;2023-06-26T13:41:10;0.73;;;0.32;;
55435;SDS011;41307;53.142;6.430;2023-06-26T13:43:36;2.38;;;0.40;;
55435;SDS011;41307;53.142;6.430;2023-06-26T13:46:02;1.88;;;0.55;;
55435;SDS011;41307;53.142;6.430;2023-06-26T13:48:28;2.60;;;0.68;;
55435;SDS011;41307;53.142;6.430;2023-06-26T13:50:54;0.43;;;0.20;;
55435;SDS011;41307;53.142;6.430;2023-06-26T13:53:21;0.93;;;0.30;;
55435;SDS011;41307;53.142;6.430;2023-06-26T13:55:47;0.40;;;0.20;;
55435;SDS011;41307;53.142;6.430;2023-06-26T13:58:13;0.40;;;0.30;;
55435;SDS011;41307;53.142;6.430;2023-06-26T14:00:39;1.85;;;0.50;;
55435;SDS011;41307;53.142;6.430;2023-06-26T14:03:06;1.25;;;0.45;;
55435;SDS011;41307;53.142;6.430;2023-06-26T14:05:36;1.75;;;0.40;;
55435;SDS011;41307;53.142;6.430;2023-06-26T14:08:06;2.33;;;0.50;;
55435;SDS011;41307;53.142;6.430;2023-06-26T14:10:33;1.65;;;0.30;;
55435;SDS011;41307;53.142;6.430;2023-06-26T14:12:59;0.65;;;0.22;;
55435;SDS011;41307;53.142;6.430;2023-06-26T14:15:25;0.50;;;0.20;;
55435;SDS011;41307;53.142;6.430;2023-06-26T14:17:51;0.30;;;0.25;;
55435;SDS011;41307;53.142;6.430;2023-06-26T14:20:17;0.30;;;0.20;;
55435;SDS011;41307;53.142;6.430;2023-06-26T14:22:47;1.42;;;0.57;;
55435;SDS011;41307;53.142;6.430;2023-06-26T14:25:14;1.42;;;0.32;;
55435;SDS011;41307;53.142;6.430;2023-06-26T14:27:41;2.10;;;0.40;;
55435;SDS011;41307;53.142;6.430;2023-06-26T14:30:07;1.02;;;0.40;;
55435;SDS011;41307;53.142;6.430;2023-06-26T14:32:33;0.98;;;0.20;;
55435;SDS011;41307;53.142;6.430;2023-06-26T14:35:00;0.65;;;0.25;;
55435;SDS011;41307;53.142;6.430;2023-06-26T14:37:26;1.83;;;0.28;;
55435;SDS011;41307;53.142;6.430;2023-06-26T14:39:54;5.05;;;0.47;;
55435;SDS011;41307;53.142;6.430;2023-06-26T14:42:19;0.93;;;0.50;;
55435;SDS011;41307;53.142;6.430;2023-06-26T14:44:45;0.90;;;0.25;;
55435;SDS011;41307;53.142;6.430;2023-06-26T14:47:19;1.50;;;0.30;;
55435;SDS011;41307;53.142;6.430;2023-06-26T14:49:44;1.17;;;0.40;;
55435;SDS011;41307;53.142;6.430;2023-06-26T14:52:10;1.67;;;0.40;;